Currently 84°F in Pinon Hills, California, USA
84°F
95°F / 77°F
8 mph NW
0.00"
Monday, August 3, 2020 8:08 PM PDT

Pinon Hills, California Climate Summary
Typical October Day

Normal High:    74.3°F (23.5°C)
Normal Low:    52.8°F (11.6°C)
Average:    63.0°F (17.2°C)

Hour    Temperature    Wind Speed    Humidity
12:00 AM    58°F (15°C)    3 mph    40%
1:00 AM    58°F (14°C)    3 mph    40%
2:00 AM    57°F (14°C)    3 mph    41%
3:00 AM    57°F (14°C)    3 mph    41%
4:00 AM    56°F (14°C)    3 mph    41%
5:00 AM    56°F (13°C)    2 mph    41%
6:00 AM    56°F (13°C)    3 mph    42%
7:00 AM    55°F (13°C)    2 mph    42%
8:00 AM    60°F (15°C)    2 mph    38%
9:00 AM    64°F (18°C)    2 mph    33%
10:00 AM    67°F (19°C)    3 mph    31%
11:00 AM    69°F (20°C)    3 mph    28%
12:00 PM    70°F (21°C)    3 mph    26%
1:00 PM    72°F (22°C)    3 mph    24%
2:00 PM    73°F (23°C)    4 mph    23%
3:00 PM    73°F (23°C)    3 mph    22%
4:00 PM    73°F (23°C)    4 mph    23%
5:00 PM    72°F (22°C)    3 mph    24%
6:00 PM    68°F (20°C)    3 mph    28%
7:00 PM    63°F (17°C)    3 mph    33%
8:00 PM    61°F (16°C)    3 mph    35%
9:00 PM    60°F (16°C)    3 mph    36%
10:00 PM    60°F (15°C)    3 mph    37%
11:00 PM    59°F (15°C)    3 mph    38%
 

The Pinon Hills, California weather pages are a service of WeatherCurrents.
Copyright ©2020  WeatherCurrents. All rights reserved. - Submit questions and comments - Privacy Policy